Time;durP1;ratioP1;P1;durP2;ratioP2;P2;SDS_P1;SDS_P2;PMS_P1;PMS_P2;Temp;Humidity;BMP_temperature;BMP_pressure;BME280_temperature;BME280_humidity;BME280_pressure;Samples;Min_cycle;Max_cycle;Signal;HPM_P1;HPM_P2
2022/08/29 00:05:21;;;;;;;17.80;8.10;;;;;;;18.13;99.04;98690.38;109508;1276;1017807;-74
2022/08/29 00:11:06;;;;;;;13.00;7.80;;;;;;;18.10;98.84;98689.34;109665;1276;1016433;-74
2022/08/29 00:16:34;;;;;;;11.70;7.10;;;;;;;18.08;98.75;98688.50;109871;1277;1018153;-74
2022/08/29 00:21:50;;;;;;;11.80;7.60;;;;;;;18.07;98.78;98687.48;109644;1276;1016402;-74
2022/08/29 00:27:15;;;;;;;13.40;7.00;;;;;;;18.08;98.53;98690.67;109594;1276;1018369;-74
2022/08/29 00:33:06;;;;;;;10.00;6.30;;;;;;;18.07;98.34;98696.75;109436;1279;1018540;-73
2022/08/29 00:45:17;;;;;;;10.10;5.60;;;;;;;18.03;97.87;98699.44;109754;1276;1018235;-74
2022/08/29 00:51:15;;;;;;;7.30;4.90;;;;;;;18.02;97.66;98699.71;109905;1276;1016068;-74
2022/08/29 00:57:08;;;;;;;11.20;5.10;;;;;;;18.01;97.36;98701.23;109653;1277;1016395;-75
2022/08/29 01:02:42;;;;;;;9.60;4.80;;;;;;;18.00;97.15;98699.73;109694;1276;1017071;-73
2022/08/29 01:14:28;;;;;;;9.60;4.70;;;;;;;17.98;96.64;98704.13;109664;1277;1016018;-74
2022/08/29 01:20:39;;;;;;;7.40;4.20;;;;;;;17.97;96.54;98703.35;109717;1277;1016593;-75
2022/08/29 01:26:31;;;;;;;11.50;4.80;;;;;;;17.96;96.30;98699.45;109523;1277;1016857;-74
2022/08/29 01:32:26;;;;;;;9.80;4.30;;;;;;;17.94;96.16;98698.92;109692;1276;1016939;-75
2022/08/29 01:37:50;;;;;;;8.80;4.60;;;;;;;17.92;95.98;98704.84;109800;1276;1016679;-73
2022/08/29 01:43:06;;;;;;;8.50;4.40;;;;;;;17.91;95.80;98710.13;109810;1276;1018267;-74
2022/08/29 01:48:35;;;;;;;13.20;5.50;;;;;;;17.87;95.81;98713.23;107778;1277;5481980;-75
2022/08/29 01:54:18;;;;;;;9.70;5.00;;;;;;;17.82;95.71;98716.62;109637;1277;1016790;-73
2022/08/29 02:00:11;;;;;;;8.40;5.40;;;;;;;17.77;95.59;98715.94;109336;1280;1017747;-74
2022/08/29 02:06:44;;;;;;;10.60;4.90;;;;;;;17.75;95.71;98722.51;109008;1286;1016661;-74
2022/08/29 02:12:26;;;;;;;11.20;5.20;;;;;;;17.72;95.66;98717.15;108911;1286;1016474;-73
2022/08/29 02:18:11;;;;;;;;;;;;;;;;;;;;;
2022/08/29 02:23:59;;;;;;;11.80;5.50;;;;;;;17.70;95.56;98712.91;108858;1286;1016745;-73
2022/08/29 02:30:00;;;;;;;9.30;5.20;;;;;;;17.68;95.56;98712.98;109278;1284;1016803;-73
2022/08/29 02:35:38;;;;;;;7.90;5.10;;;;;;;17.65;95.41;98718.08;109651;1277;1016149;-74
2022/08/29 02:41:58;;;;;;;10.20;6.00;;;;;;;17.60;95.35;98722.83;109688;1276;1016802;-74
2022/08/29 02:47:13;;;;;;;10.60;5.30;;;;;;;17.56;95.28;98728.86;109656;1277;1017137;-75
2022/08/29 02:52:31;;;;;;;10.30;5.80;;;;;;;17.52;95.18;98732.75;109765;1278;1017319;-74
2022/08/29 02:58:46;;;;;;;;;;;;;;;;;;;;;
2022/08/29 03:04:25;;;;;;;12.00;5.40;;;;;;;17.38;95.19;98735.90;109821;1276;1019828;-73
2022/08/29 03:09:51;;;;;;;;;;;;;;;;;;;;;
2022/08/29 03:15:17;;;;;;;14.00;5.70;;;;;;;17.30;95.45;98740.83;109727;1276;1016524;-73
2022/08/29 03:21:00;;;;;;;8.00;4.90;;;;;;;17.28;95.46;98745.47;109708;1276;1016354;-74
2022/08/29 03:26:34;;;;;;;9.80;5.40;;;;;;;17.23;95.57;98745.64;109753;1279;1018558;-74
2022/08/29 03:32:19;;;;;;;15.20;5.60;;;;;;;17.21;95.64;98756.15;109821;1278;1017173;-74
2022/08/29 03:38:21;;;;;;;10.30;5.90;;;;;;;17.21;95.75;98755.45;109543;1279;1016277;-75
2022/08/29 03:44:32;;;;;;;;;;;;;;;;;;;;;
2022/08/29 03:50:13;;;;;;;9.40;6.10;;;;;;;17.19;95.88;98771.53;109332;1282;1016698;-75
2022/08/29 03:55:52;;;;;;;11.50;6.90;;;;;;;17.18;95.91;98775.45;109345;1282;1019201;-75
2022/08/29 04:01:27;;;;;;;11.80;6.70;;;;;;;17.15;95.84;98776.52;109286;1281;1017243;-74
2022/08/29 04:07:14;;;;;;;11.90;7.00;;;;;;;17.11;95.80;98778.29;109288;1282;1016514;-74
2022/08/29 04:13:05;;;;;;;13.40;6.40;;;;;;;17.07;95.94;98785.98;109361;1281;1016838;-73
2022/08/29 04:18:50;;;;;;;10.10;6.90;;;;;;;17.02;96.00;98792.02;109590;1277;1016671;-75
2022/08/29 04:30:01;;;;;;;13.60;7.20;;;;;;;16.94;96.04;98801.64;109543;1279;1016670;-74
2022/08/29 04:35:34;;;;;;;13.50;8.20;;;;;;;16.90;96.13;98812.86;109255;1281;1018406;-74
2022/08/29 04:40:59;;;;;;;13.00;8.50;;;;;;;16.85;96.00;98829.72;109394;1281;1016585;-73
2022/08/29 04:47:02;;;;;;;12.20;7.70;;;;;;;16.81;96.16;98829.11;109396;1281;1016426;-74
2022/08/29 04:52:24;;;;;;;13.60;8.80;;;;;;;16.79;96.20;98835.14;109411;1281;1016987;-75
2022/08/29 04:57:42;;;;;;;10.80;8.10;;;;;;;16.76;96.13;98842.77;109374;1280;1017001;-76
2022/08/29 05:03:53;;;;;;;;;;;;;;;;;;;;;
2022/08/29 05:09:31;;;;;;;13.20;8.30;;;;;;;16.76;96.04;98856.13;109709;1277;1016104;-74
2022/08/29 05:15:39;;;;;;;11.50;7.90;;;;;;;16.77;95.93;98864.04;109687;1277;1017056;-73
2022/08/29 05:21:50;;;;;;;14.60;7.70;;;;;;;16.84;95.85;98864.10;109776;1277;1016725;-73
2022/08/29 05:27:55;;;;;;;12.20;7.90;;;;;;;16.95;95.59;98870.26;109886;1277;1016505;-74
2022/08/29 05:33:28;;;;;;;13.10;8.90;;;;;;;17.02;95.29;98875.77;109683;1276;1016680;-73
2022/08/29 05:39:35;;;;;;;14.80;8.50;;;;;;;17.03;95.15;98886.70;109767;1276;1017072;-74
2022/08/29 05:45:07;;;;;;;14.30;8.70;;;;;;;16.99;94.89;98883.98;109843;1277;1017340;-74
2022/08/29 05:51:10;;;;;;;13.40;7.90;;;;;;;16.96;94.85;98882.16;109515;1281;1019008;-73
2022/08/29 05:57:55;;;;;;;12.00;7.90;;;;;;;17.05;94.78;98882.84;109465;1281;1016418;-78
2022/08/29 06:03:10;;;;;;;11.80;7.30;;;;;;;17.18;94.79;98893.61;109310;1280;1016853;-74
2022/08/29 06:09:15;;;;;;;13.00;7.50;;;;;;;17.34;94.46;98899.09;110056;1279;1017395;-77
2022/08/29 06:14:57;;;;;;;11.90;7.50;;;;;;;17.36;93.81;98910.77;110314;1280;1016528;-77
2022/08/29 06:20:54;;;;;;;16.00;8.00;;;;;;;17.40;93.68;98914.23;109416;1283;1016572;-77
2022/08/29 06:26:39;;;;;;;11.80;7.20;;;;;;;17.49;93.43;98916.73;109263;1284;1016410;-77
2022/08/29 06:32:30;;;;;;;11.80;7.30;;;;;;;17.61;93.15;98928.30;109054;1287;1018863;-77
2022/08/29 06:38:23;;;;;;;14.00;8.30;;;;;;;17.73;92.67;98934.45;109162;1286;1016528;-77
2022/08/29 06:43:29;;;;;;;13.10;7.50;;;;;;;17.90;92.58;98940.20;109503;1283;1016535;-77
2022/08/29 06:48:52;;;;;;;11.20;7.40;;;;;;;18.07;92.42;98947.45;109401;1281;1016928;-77
2022/08/29 06:54:24;;;;;;;10.00;6.70;;;;;;;18.27;91.94;98950.23;109749;1280;1016504;-77
2022/08/29 07:00:09;;;;;;;8.60;6.70;;;;;;;18.47;91.46;98963.59;109839;1279;1016426;-77
2022/08/29 07:05:28;;;;;;;9.50;6.30;;;;;;;18.67;90.74;98963.95;110786;1279;1018849;-77
2022/08/29 07:10:31;;;;;;;11.60;7.00;;;;;;;18.85;90.30;98965.64;110680;1279;1016727;-78
2022/08/29 07:16:05;;;;;;;10.40;6.30;;;;;;;18.99;89.50;98968.72;110278;1282;1016692;-77
2022/08/29 07:21:34;;;;;;;10.70;6.70;;;;;;;19.18;88.65;98970.86;110446;1279;1016771;-77
2022/08/29 07:26:46;;;;;;;11.30;6.60;;;;;;;19.29;88.49;98976.33;110266;1279;1018900;-77
2022/08/29 07:31:48;;;;;;;9.20;5.80;;;;;;;19.51;88.38;98978.29;110423;1277;1017894;-77
2022/08/29 07:37:19;;;;;;;11.10;6.10;;;;;;;19.84;88.03;98985.38;110130;1277;1016670;-77
2022/08/29 07:42:27;;;;;;;14.30;6.60;;;;;;;20.25;87.71;98992.98;110300;1277;1017086;-77
2022/08/29 07:47:40;;;;;;;8.90;6.10;;;;;;;20.42;86.16;98992.95;111194;1276;1016499;-77
2022/08/29 07:52:51;;;;;;;8.50;5.80;;;;;;;20.49;85.50;98990.71;110358;1278;1016725;-77
2022/08/29 07:58:14;;;;;;;11.30;6.40;;;;;;;20.65;84.72;98992.67;110103;1277;1016583;-77
2022/08/29 08:03:37;;;;;;;10.80;6.30;;;;;;;20.80;84.50;98999.67;110030;1277;1016672;-76
2022/08/29 08:08:42;;;;;;;12.10;7.70;;;;;;;20.86;83.77;99005.29;109889;1276;1016567;-77
2022/08/29 08:13:58;;;;;;;7.50;5.50;;;;;;;20.92;83.12;99002.93;110079;1277;1016383;-77
2022/08/29 08:19:14;;;;;;;9.40;6.60;;;;;;;20.88;81.69;99007.97;111239;1278;1016436;-77
2022/08/29 08:24:27;;;;;;;15.80;6.90;;;;;;;21.12;82.84;99015.55;110590;1277;1016194;-77
2022/08/29 08:29:32;;;;;;;10.70;6.90;;;;;;;21.42;81.58;99013.73;110330;1277;1016232;-77
2022/08/29 08:34:35;;;;;;;8.70;6.20;;;;;;;21.50;81.00;99011.44;109948;1277;1016495;-78
2022/08/29 08:39:58;;;;;;;11.00;6.90;;;;;;;21.56;80.37;99012.27;109967;1277;1018715;-77
2022/08/29 08:45:21;;;;;;;10.80;6.70;;;;;;;21.81;80.20;99014.05;110147;1276;1019619;-78
2022/08/29 08:51:15;;;;;;;12.00;7.40;;;;;;;21.81;79.87;99021.23;110440;1276;1016268;-77
2022/08/29 08:56:36;;;;;;;9.20;6.30;;;;;;;21.50;79.08;99024.27;110115;1277;1016258;-77
2022/08/29 09:02:02;;;;;;;9.20;5.70;;;;;;;21.48;79.92;99019.95;110318;1276;1016324;-79
2022/08/29 09:07:55;;;;;;;8.00;5.60;;;;;;;21.82;79.94;99012.27;110321;1277;1016452;-77
2022/08/29 09:14:09;;;;;;;13.70;7.50;;;;;;;22.29;79.17;99014.62;110026;1282;1016783;-75
2022/08/29 09:19:16;;;;;;;8.40;6.00;;;;;;;22.41;77.41;99015.55;109203;1281;1016719;-76
2022/08/29 09:24:34;;;;;;;9.90;7.00;;;;;;;22.26;77.09;99010.82;109335;1282;1016448;-75
2022/08/29 09:29:48;;;;;;;6.90;5.80;;;;;;;22.10;76.87;99003.71;109651;1281;1016682;-74
2022/08/29 09:34:51;;;;;;;9.70;5.00;;;;;;;22.14;77.38;98998.59;109413;1282;1021111;-75
2022/08/29 09:40:17;;;;;;;6.30;5.10;;;;;;;22.42;76.35;98996.55;109960;1277;1016705;-74
2022/08/29 09:45:39;;;;;;;;;;;;;;;22.52;75.52;99000.70;109899;1278;1016296;-74
2022/08/29 09:51:11;;;;;;;5.90;4.50;;;;;;;22.32;74.80;98997.20;109770;1277;1018955;-74
2022/08/29 09:56:36;;;;;;;5.50;4.60;;;;;;;22.45;74.53;98993.17;109889;1278;1016625;-74
2022/08/29 10:02:22;;;;;;;6.20;4.90;;;;;;;22.69;73.89;98986.33;110092;1277;1016296;-75
2022/08/29 10:07:58;;;;;;;9.20;4.30;;;;;;;22.48;72.47;98993.70;109896;1277;1019821;-73
2022/08/29 10:13:20;;;;;;;7.30;4.30;;;;;;;22.37;71.94;98989.77;110093;1277;1016550;-74
2022/08/29 10:18:51;;;;;;;4.30;3.80;;;;;;;22.42;70.89;98990.61;109721;1277;1018262;-74
2022/08/29 10:24:23;;;;;;;4.00;3.50;;;;;;;22.47;70.12;98990.17;109843;1278;1019110;-75
2022/08/29 10:29:49;;;;;;;6.80;4.60;;;;;;;22.61;69.89;98989.55;109801;1278;1016692;-75
2022/08/29 10:35:37;;;;;;;6.80;4.10;;;;;;;22.55;69.65;98993.83;109760;1278;1017720;-74
2022/08/29 10:41:15;;;;;;;6.80;3.60;;;;;;;22.54;68.43;98992.79;109965;1278;1016693;-75
2022/08/29 10:46:32;;;;;;;5.20;3.00;;;;;;;22.58;68.44;98989.20;110048;1277;1016157;-75
2022/08/29 10:51:51;;;;;;;5.70;3.40;;;;;;;22.74;68.32;98987.80;109864;1278;1016393;-76
2022/08/29 10:57:09;;;;;;;5.00;3.50;;;;;;;22.69;67.66;98980.71;109942;1277;1017606;-75
2022/08/29 11:02:29;;;;;;;7.50;4.30;;;;;;;22.75;67.51;98979.26;109900;1278;1016667;-75
2022/08/29 11:08:10;;;;;;;6.60;3.50;;;;;;;22.90;67.37;98979.50;109992;1278;1016629;-76
2022/08/29 11:13:37;;;;;;;7.00;4.00;;;;;;;22.92;66.87;98980.55;109668;1281;1019289;-76
2022/08/29 11:19:23;;;;;;;7.90;3.80;;;;;;;22.86;66.99;98979.66;109677;1278;1017068;-76
2022/08/29 11:24:35;;;;;;;7.80;4.00;;;;;;;22.79;66.14;98967.06;109960;1277;1017080;-76
2022/08/29 11:29:56;;;;;;;7.60;4.10;;;;;;;22.96;66.51;98960.77;109852;1281;1017332;-75
2022/08/29 11:35:23;;;;;;;6.50;4.30;;;;;;;23.17;66.08;98958.15;109847;1278;1016563;-77
2022/08/29 11:41:20;;;;;;;8.10;4.50;;;;;;;23.03;65.82;98959.02;109866;1280;1016563;-76
2022/08/29 11:46:38;;;;;;;9.80;4.10;;;;;;;23.04;66.26;98965.27;109878;1280;1016563;-76
2022/08/29 11:52:29;;;;;;;7.00;4.30;;;;;;;23.13;65.31;98966.21;109637;1280;1017322;-75
2022/08/29 11:57:44;;;;;;;5.10;3.40;;;;;;;23.17;64.12;98958.39;109646;1280;1018359;-76
2022/08/29 12:02:49;;;;;;;6.10;3.30;;;;;;;23.14;64.28;98957.47;109606;1277;1018999;-74
2022/08/29 12:08:22;;;;;;;7.20;3.80;;;;;;;23.35;64.07;98958.40;109653;1280;1016889;-75
2022/08/29 12:14:03;;;;;;;6.10;3.10;;;;;;;23.53;63.96;98959.48;109585;1278;1016823;-76
2022/08/29 12:19:09;;;;;;;7.80;4.00;;;;;;;23.79;64.51;98956.23;109913;1277;1017636;-76
2022/08/29 12:24:57;;;;;;;7.90;3.60;;;;;;;23.96;62.99;98948.84;109783;1277;1016963;-75
2022/08/29 12:30:05;;;;;;;5.50;3.60;;;;;;;23.97;62.87;98945.27;109773;1278;1017125;-74
2022/08/29 12:36:06;;;;;;;9.70;4.20;;;;;;;23.94;62.26;98939.21;109743;1277;1016577;-75
2022/08/29 12:41:45;;;;;;;6.00;3.00;;;;;;;23.90;61.39;98940.89;109419;1281;1018832;-75
2022/08/29 12:47:08;;;;;;;6.60;3.50;;;;;;;23.84;59.56;98937.37;109656;1280;1016685;-75
2022/08/29 12:52:25;;;;;;;5.80;2.80;;;;;;;23.84;60.31;98941.03;109526;1280;1016498;-75
2022/08/29 12:57:55;;;;;;;10.30;3.00;;;;;;;23.87;60.62;98936.64;109591;1280;1016203;-74
2022/08/29 13:03:09;;;;;;;4.30;2.60;;;;;;;23.96;61.08;98939.15;109685;1279;1016486;-74
2022/08/29 13:08:35;;;;;;;6.40;2.50;;;;;;;24.00;60.84;98936.24;109735;1277;1016449;-74
2022/08/29 13:14:15;;;;;;;7.60;2.60;;;;;;;23.98;60.88;98929.33;109682;1277;1019064;-75
2022/08/29 13:19:20;;;;;;;8.80;2.80;;;;;;;23.96;60.76;98925.56;109584;1279;1016711;-74
2022/08/29 13:24:29;;;;;;;4.30;2.40;;;;;;;24.00;60.47;98924.66;109558;1279;1016803;-75
2022/08/29 13:29:39;;;;;;;5.60;2.50;;;;;;;24.04;59.78;98925.41;109584;1280;1016677;-76
2022/08/29 13:35:23;;;;;;;4.70;2.40;;;;;;;23.99;59.70;98921.53;109895;1279;1016677;-75
2022/08/29 13:40:59;;;;;;;7.30;2.40;;;;;;;23.90;59.38;98921.98;109633;1279;1017415;-75
2022/08/29 13:46:28;;;;;;;5.20;2.20;;;;;;;23.77;59.19;98916.65;107458;1277;5335886;-75
2022/08/29 13:51:54;;;;;;;4.50;2.90;;;;;;;23.65;59.10;98910.89;109739;1279;1018863;-75
2022/08/29 13:57:37;;;;;;;3.40;2.70;;;;;;;23.62;59.42;98909.91;109910;1276;1016244;-76
2022/08/29 14:03:07;;;;;;;4.60;2.00;;;;;;;23.63;59.00;98912.51;109920;1277;1019313;-76
2022/08/29 14:08:13;;;;;;;4.80;2.30;;;;;;;23.54;58.50;98915.60;109786;1277;1016684;-75
2022/08/29 14:13:32;;;;;;;4.80;2.30;;;;;;;23.42;58.68;98922.56;109751;1277;1016877;-76
2022/08/29 14:18:56;;;;;;;3.30;2.00;;;;;;;23.40;59.20;98921.77;109759;1277;1016853;-74
2022/08/29 14:23:58;;;;;;;7.30;2.20;;;;;;;23.36;58.44;98923.02;109788;1277;1017621;-75
2022/08/29 14:29:03;;;;;;;3.40;2.00;;;;;;;23.30;58.71;98919.66;109641;1279;1019076;-75
2022/08/29 14:34:12;;;;;;;6.70;2.20;;;;;;;23.25;57.91;98924.67;109808;1277;1017135;-75
2022/08/29 14:39:15;;;;;;;5.00;2.20;;;;;;;23.18;57.90;98922.95;109779;1276;1016516;-75
2022/08/29 14:44:17;;;;;;;4.20;2.10;;;;;;;23.15;57.62;98924.79;109556;1276;1016883;-76
2022/08/29 14:49:27;;;;;;;3.20;2.70;;;;;;;23.13;57.70;98923.35;109577;1277;1016928;-75
2022/08/29 14:54:34;;;;;;;4.00;2.20;;;;;;;23.11;57.38;98920.80;109606;1276;1019145;-75
2022/08/29 14:59:37;;;;;;;5.50;2.20;;;;;;;23.06;56.66;98922.36;109751;1277;1016831;-75
2022/08/29 15:04:57;;;;;;;4.40;2.10;;;;;;;23.05;57.40;98921.73;109574;1277;1018891;-75
2022/08/29 15:10:03;;;;;;;4.80;2.20;;;;;;;23.10;57.62;98920.63;109782;1276;1017408;-74
2022/08/29 15:15:27;;;;;;;3.40;1.90;;;;;;;23.05;56.85;98916.27;109769;1276;1018611;-75
2022/08/29 15:20:35;;;;;;;7.60;2.20;;;;;;;23.00;56.33;98916.27;109743;1276;1016434;-75
2022/08/29 15:25:44;;;;;;;5.20;2.20;;;;;;;23.00;56.49;98912.14;109652;1276;1016462;-75
2022/08/29 15:30:58;;;;;;;4.50;2.00;;;;;;;22.99;56.56;98909.78;109769;1276;1016260;-75
2022/08/29 15:36:06;;;;;;;3.30;1.80;;;;;;;23.01;56.11;98907.30;109822;1276;1016671;-75
2022/08/29 15:41:23;;;;;;;6.60;1.70;;;;;;;22.98;55.97;98910.02;109673;1276;1017125;-75
2022/08/29 15:46:32;;;;;;;5.50;1.70;;;;;;;22.95;55.65;98910.50;109777;1276;1016927;-74
2022/08/29 15:51:59;;;;;;;4.60;1.70;;;;;;;22.85;54.93;98909.17;109778;1276;1016393;-75
2022/08/29 15:57:01;;;;;;;3.80;1.60;;;;;;;22.72;54.23;98906.49;109610;1276;1016367;-75
2022/08/29 16:02:11;;;;;;;5.00;1.60;;;;;;;22.63;54.22;98908.77;109787;1276;1016772;-75
2022/08/29 16:07:17;;;;;;;4.00;2.00;;;;;;;22.59;54.83;98906.36;109702;1276;1018509;-75
2022/08/29 16:12:20;;;;;;;5.30;1.90;;;;;;;22.55;55.20;98905.38;109725;1276;1017498;-74
2022/08/29 16:17:22;;;;;;;4.60;2.10;;;;;;;22.47;55.49;98905.71;109588;1276;1020629;-75
2022/08/29 16:22:27;;;;;;;6.00;1.80;;;;;;;22.37;55.50;98903.66;109825;1276;1016723;-75
2022/08/29 16:27:49;;;;;;;6.50;1.90;;;;;;;22.24;55.35;98899.45;109742;1277;1019170;-75
2022/08/29 16:33:00;;;;;;;5.10;1.60;;;;;;;22.08;53.92;98894.11;109854;1276;1017132;-75
2022/08/29 16:38:02;;;;;;;4.30;1.60;;;;;;;21.96;54.20;98898.56;109659;1276;1016699;-74
2022/08/29 16:43:06;;;;;;;3.40;1.50;;;;;;;21.82;54.53;98898.15;109738;1276;1016562;-74
2022/08/29 16:48:17;;;;;;;3.50;1.90;;;;;;;21.67;54.74;98898.50;109736;1276;1018041;-74
2022/08/29 16:53:20;;;;;;;5.40;1.70;;;;;;;21.52;55.24;98892.89;109699;1276;1016104;-75
2022/08/29 17:04:09;;;;;;;3.70;1.70;;;;;;;21.18;56.38;98893.98;109743;1276;1016989;-76
2022/08/29 17:19:43;;;;;;;4.20;2.00;;;;;;;20.61;57.92;98894.76;109714;1276;1016593;-75
2022/08/29 17:25:08;;;;;;;5.30;1.90;;;;;;;20.39;58.21;98901.77;109632;1278;1017771;-75
2022/08/29 17:30:30;;;;;;;5.70;2.50;;;;;;;20.14;58.76;98910.01;109775;1276;1017755;-75
2022/08/29 17:36:17;;;;;;;4.80;1.80;;;;;;;19.84;59.33;98907.33;109667;1278;1018056;-75
2022/08/29 17:41:30;;;;;;;3.90;2.30;;;;;;;19.57;59.91;98909.54;109806;1276;1019345;-76
2022/08/29 17:46:50;;;;;;;7.50;1.90;;;;;;;19.36;60.52;98913.66;109757;1276;1018018;-75
2022/08/29 17:52:02;;;;;;;;;;;;;;;19.15;61.09;98913.83;109813;1277;1018330;-75
2022/08/29 17:57:54;;;;;;;2.60;1.60;;;;;;;18.96;61.44;98919.00;109673;1277;1019241;-75
2022/08/29 18:03:04;;;;;;;4.70;1.90;;;;;;;18.79;61.84;98933.88;109766;1276;1016965;-74
2022/08/29 18:08:26;;;;;;;5.60;2.10;;;;;;;18.65;62.44;98934.18;109829;1277;1016512;-74
2022/08/29 18:13:29;;;;;;;4.70;2.00;;;;;;;18.48;62.92;98935.59;109785;1277;1016458;-74
2022/08/29 18:19:36;;;;;;;6.40;2.20;;;;;;;18.32;63.02;98939.25;109835;1276;1016642;-74
2022/08/29 18:25:27;;;;;;;4.90;2.40;;;;;;;18.16;63.79;98943.04;109809;1277;1016073;-74
2022/08/29 18:30:37;;;;;;;9.60;4.30;;;;;;;18.05;64.05;98946.52;109781;1277;1018348;-75
2022/08/29 18:36:00;;;;;;;;;;;;;;;17.92;64.32;98954.13;109743;1277;1016580;-75
2022/08/29 18:41:03;;;;;;;6.30;2.20;;;;;;;17.76;64.76;98961.06;109805;1276;1016767;-74
2022/08/29 18:46:08;;;;;;;3.20;2.20;;;;;;;17.64;65.34;98969.59;109784;1276;1018650;-74
2022/08/29 18:51:37;;;;;;;5.60;1.90;;;;;;;17.51;65.54;98976.62;109763;1276;1019092;-75
2022/08/29 18:56:52;;;;;;;4.80;2.20;;;;;;;17.38;66.14;98979.78;109801;1276;1016579;-74
2022/08/29 19:02:11;;;;;;;9.00;2.70;;;;;;;17.25;66.84;98987.24;109597;1277;1016950;-76
2022/08/29 19:07:24;;;;;;;7.70;3.50;;;;;;;17.14;67.68;98998.46;109719;1277;1018425;-74
2022/08/29 19:12:27;;;;;;;9.10;3.90;;;;;;;17.02;68.33;99002.96;109764;1277;1019659;-75
2022/08/29 19:17:30;;;;;;;8.70;4.00;;;;;;;16.90;69.09;99006.27;109724;1276;1016533;-74
2022/08/29 19:22:35;;;;;;;7.20;4.30;;;;;;;16.76;69.94;99012.50;109882;1277;1016596;-75
2022/08/29 19:27:41;;;;;;;8.80;4.90;;;;;;;16.65;70.50;99020.44;109792;1276;1015936;-75
2022/08/29 19:32:45;;;;;;;10.60;4.80;;;;;;;16.56;70.87;99022.93;109816;1276;1019223;-75
2022/08/29 19:38:08;;;;;;;8.90;4.70;;;;;;;16.49;71.36;99022.79;109671;1276;1016670;-74
2022/08/29 19:43:31;;;;;;;7.90;3.70;;;;;;;16.41;71.87;99022.77;109702;1277;1016047;-75
2022/08/29 19:49:00;;;;;;;6.20;3.90;;;;;;;16.32;72.48;99026.25;109528;1280;1017552;-75
2022/08/29 19:54:22;;;;;;;10.70;4.80;;;;;;;16.21;73.24;99028.55;109486;1279;1016148;-75
2022/08/29 19:59:30;;;;;;;11.10;5.20;;;;;;;16.08;73.97;99027.67;109405;1279;1018703;-75
2022/08/29 20:04:47;;;;;;;12.80;5.70;;;;;;;15.99;74.59;99027.04;109488;1279;1016349;-74
2022/08/29 20:09:53;;;;;;;12.70;5.70;;;;;;;15.88;74.98;99033.08;109484;1279;1017100;-74
2022/08/29 20:15:29;;;;;;;9.60;5.40;;;;;;;15.81;75.34;99033.80;109232;1284;1016370;-74
2022/08/29 20:20:41;;;;;;;10.90;5.90;;;;;;;15.74;75.72;99037.58;109158;1285;1016642;-74
2022/08/29 20:26:13;;;;;;;7.70;4.60;;;;;;;15.69;76.07;99040.96;109321;1281;1017277;-74
2022/08/29 20:31:36;;;;;;;7.90;4.70;;;;;;;15.64;76.72;99047.98;109406;1281;1016528;-74
2022/08/29 20:37:08;;;;;;;8.60;4.00;;;;;;;15.58;76.90;99048.54;109438;1281;1018447;-74
2022/08/29 20:42:42;;;;;;;8.30;4.90;;;;;;;15.53;77.32;99047.10;109421;1281;1017034;-75
2022/08/29 20:48:08;;;;;;;8.40;5.60;;;;;;;15.47;77.66;99045.28;109444;1281;1016816;-75
2022/08/29 20:53:14;;;;;;;9.20;4.30;;;;;;;15.40;77.87;99045.48;109668;1277;1017033;-74
2022/08/29 20:58:42;;;;;;;7.50;4.90;;;;;;;15.31;78.18;99052.09;109722;1276;1017378;-75
2022/08/29 21:10:05;;;;;;;8.00;4.80;;;;;;;15.13;79.43;99063.24;109636;1277;1016411;-74
2022/08/29 21:15:57;;;;;;;15.30;5.30;;;;;;;15.05;79.84;99054.86;109542;1280;1016555;-76
2022/08/29 21:21:01;;;;;;;7.20;4.60;;;;;;;15.02;80.10;99056.98;109473;1280;1017137;-74
2022/08/29 21:26:37;;;;;;;7.50;4.30;;;;;;;14.95;80.20;99060.14;109501;1282;1016576;-74
2022/08/29 21:32:10;;;;;;;6.50;4.10;;;;;;;14.85;80.56;99053.50;109510;1279;1016561;-74
2022/08/29 21:37:43;;;;;;;8.60;3.90;;;;;;;14.75;80.93;99047.88;109584;1277;1017433;-75
2022/08/29 21:43:13;;;;;;;;;;;;;;;;;;;;;
2022/08/29 21:55:10;;;;;;;7.90;4.00;;;;;;;14.51;82.20;99056.15;109803;1276;1018951;-75
2022/08/29 22:00:35;;;;;;;10.50;4.50;;;;;;;14.44;82.45;99052.17;109814;1277;1019968;-75
2022/08/29 22:05:43;;;;;;;8.10;4.60;;;;;;;14.39;82.75;99050.94;109746;1276;1016814;-75
2022/08/29 22:10:52;;;;;;;5.50;3.80;;;;;;;14.35;83.12;99055.08;109734;1276;1016184;-75
2022/08/29 22:16:42;;;;;;;6.30;3.80;;;;;;;14.29;83.61;99059.49;109743;1276;1018287;-75
2022/08/29 22:22:07;;;;;;;6.50;3.70;;;;;;;14.19;83.86;99057.23;109679;1276;1018787;-75
2022/08/29 22:27:09;;;;;;;7.50;4.80;;;;;;;14.13;84.43;99058.45;109841;1276;1016671;-75
2022/08/29 22:32:12;;;;;;;6.60;4.40;;;;;;;14.06;84.91;99056.84;109783;1276;1017023;-74
2022/08/29 22:37:27;;;;;;;7.60;4.80;;;;;;;13.98;85.31;99059.28;109912;1276;1016539;-75
2022/08/29 22:43:04;;;;;;;5.30;3.80;;;;;;;13.92;85.75;99062.04;109625;1280;1016275;-75
2022/08/29 22:48:15;;;;;;;6.40;3.90;;;;;;;13.88;86.48;99062.52;109579;1280;1016308;-75
2022/08/29 22:53:20;;;;;;;6.10;4.00;;;;;;;13.82;86.81;99057.63;109666;1279;1017153;-75
2022/08/29 22:58:47;;;;;;;4.70;3.70;;;;;;;13.77;87.24;99054.08;109669;1278;1016505;-75
2022/08/29 23:04:10;;;;;;;5.80;3.30;;;;;;;13.70;87.45;99050.94;109601;1280;1016784;-74
2022/08/29 23:15:16;;;;;;;9.00;5.30;;;;;;;13.62;87.44;99052.89;109676;1277;1016592;-75
2022/08/29 23:20:28;;;;;;;6.30;4.60;;;;;;;13.55;87.52;99054.48;109761;1279;1016013;-75
2022/08/29 23:25:30;;;;;;;6.20;4.10;;;;;;;13.49;87.88;99051.15;109757;1278;1018436;-75
2022/08/29 23:30:43;;;;;;;6.10;4.50;;;;;;;13.42;88.05;99050.39;109794;1278;1016621;-75
2022/08/29 23:35:56;;;;;;;8.70;5.10;;;;;;;13.38;88.35;99050.73;109837;1278;1018278;-75
2022/08/29 23:41:30;;;;;;;7.00;4.60;;;;;;;13.34;88.42;99045.38;109703;1278;1016614;-75
2022/08/29 23:46:54;;;;;;;9.10;5.00;;;;;;;13.29;88.52;99037.86;109832;1277;1016556;-75
2022/08/29 23:52:45;;;;;;;10.90;4.60;;;;;;;13.29;88.66;99038.84;109701;1276;1019013;-74
2022/08/29 23:58:07;;;;;;;5.30;3.80;;;;;;;13.26;88.89;99041.09;109784;1277;1016437;-75
